Huvudsida
METAR-TAF:

METAR-TAF

Flygplatser :

Trieste / Ronchi dei Legionari, Italien

latitud: 45-49N, longitud: 013-29E, höjd: 12 m

Aktuellt väderrapport

Denna rapport gjordes för 39 minuter sedan, klockan 20:50 UTC
Vind 4 kt från nord
Temperatur 22°C
Fuktighet 73%
Tryck 1012 hPa
Sikt 10 km eller mer
Spridda moln på en höjd av 6000 ft

METAR: LIPQ 192050Z 01004KT 9999 SCT060 22/17 Q1012

Tid: 23:29 (21:29 UTC)

Väderprognos

Denna rapport gjordes för 4 timmar och 29 minuter sedan, klockan 17:00 UTC
Prognos gäller från 19 kl. 18 UTC till 20 kl. 18 UTC
Vind 5 kt varierande vindriktning
Sikt 10 km eller mer
Få moln på en höjd av 3000 ft
Blir
från 20 kl. 08 UTC till 20 kl. 10 UTC
Vind 10 kt från syd/sydväst
Blir
från 20 kl. 16 UTC till 20 kl. 18 UTC
Vind 5 kt varierande vindriktning

TAF: LIPQ 191700Z 1918/2018 VRB05KT 9999 FEW030 BECMG 2008/2010 20010KT BECMG 2016/2018 VRB05KT

Aktuella väderrapporter och prognoser från 4000 flygplatser (METAR- och TAF-rapporter).

De tillgängliga stationerna syns som gula och röda prickar på kartan.

För musen över prickarna för att se namnen på stationerna.

Klicka sedan för att få väderrapporter och prognoser.

För att ändra kartan: Klicka på de gröna knapparna med ett svart kors på för att zooma in; den gröna knappen med ett streck på för att zooma ut; eller på de gröna pilarna för angränsande kartor.


METAR-TAF: